sensor_id;sensor_type;location;lat;lon;timestamp;P1;durP1;ratioP1;P2;durP2;ratioP2
73859;SDS011;62197;51.632;13.700;2022-09-21T00:03:39;7.10;;;4.15;;
73859;SDS011;62197;51.632;13.700;2022-09-21T00:06:09;6.22;;;4.30;;
73859;SDS011;62197;51.632;13.700;2022-09-21T00:08:37;6.93;;;4.22;;
73859;SDS011;62197;51.632;13.700;2022-09-21T00:11:03;5.93;;;4.32;;
73859;SDS011;62197;51.632;13.700;2022-09-21T00:13:29;4.95;;;3.58;;
73859;SDS011;62197;51.632;13.700;2022-09-21T00:15:57;6.13;;;3.88;;
73859;SDS011;62197;51.632;13.700;2022-09-21T00:18:23;8.10;;;4.15;;
73859;SDS011;62197;51.632;13.700;2022-09-21T00:20:48;9.85;;;4.18;;
73859;SDS011;62197;51.632;13.700;2022-09-21T00:23:14;7.03;;;3.67;;
73859;SDS011;62197;51.632;13.700;2022-09-21T00:25:40;4.72;;;3.20;;
73859;SDS011;62197;51.632;13.700;2022-09-21T00:28:05;4.13;;;3.30;;
73859;SDS011;62197;51.632;13.700;2022-09-21T00:30:31;6.07;;;3.33;;
73859;SDS011;62197;51.632;13.700;2022-09-21T00:32:56;5.40;;;3.70;;
73859;SDS011;62197;51.632;13.700;2022-09-21T00:35:21;6.65;;;3.88;;
73859;SDS011;62197;51.632;13.700;2022-09-21T00:37:47;8.68;;;5.45;;
73859;SDS011;62197;51.632;13.700;2022-09-21T00:40:12;8.20;;;5.20;;
73859;SDS011;62197;51.632;13.700;2022-09-21T00:42:37;8.93;;;6.10;;
73859;SDS011;62197;51.632;13.700;2022-09-21T00:45:04;10.23;;;6.72;;
73859;SDS011;62197;51.632;13.700;2022-09-21T00:47:32;7.90;;;5.47;;
73859;SDS011;62197;51.632;13.700;2022-09-21T00:50:00;9.13;;;5.35;;
73859;SDS011;62197;51.632;13.700;2022-09-21T00:52:31;7.97;;;5.38;;
73859;SDS011;62197;51.632;13.700;2022-09-21T00:55:02;8.80;;;5.57;;
73859;SDS011;62197;51.632;13.700;2022-09-21T00:57:31;8.63;;;5.68;;
73859;SDS011;62197;51.632;13.700;2022-09-21T01:00:00;6.80;;;5.30;;
73859;SDS011;62197;51.632;13.700;2022-09-21T01:02:28;7.53;;;4.47;;
73859;SDS011;62197;51.632;13.700;2022-09-21T01:04:54;7.28;;;4.00;;
73859;SDS011;62197;51.632;13.700;2022-09-21T01:07:21;5.85;;;4.20;;
73859;SDS011;62197;51.632;13.700;2022-09-21T01:09:51;5.95;;;4.38;;
73859;SDS011;62197;51.632;13.700;2022-09-21T01:12:24;5.63;;;3.60;;
73859;SDS011;62197;51.632;13.700;2022-09-21T01:15:04;4.65;;;3.38;;
73859;SDS011;62197;51.632;13.700;2022-09-21T01:32:21;4.72;;;2.75;;
73859;SDS011;62197;51.632;13.700;2022-09-21T01:37:19;3.90;;;2.70;;
73859;SDS011;62197;51.632;13.700;2022-09-21T01:39:50;4.85;;;3.10;;
73859;SDS011;62197;51.632;13.700;2022-09-21T01:42:20;4.05;;;2.90;;
73859;SDS011;62197;51.632;13.700;2022-09-21T01:44:49;4.65;;;2.92;;
73859;SDS011;62197;51.632;13.700;2022-09-21T01:47:14;6.03;;;3.40;;
73859;SDS011;62197;51.632;13.700;2022-09-21T01:49:46;4.10;;;3.20;;
73859;SDS011;62197;51.632;13.700;2022-09-21T01:52:22;5.10;;;3.33;;
73859;SDS011;62197;51.632;13.700;2022-09-21T01:58:01;6.43;;;3.30;;
73859;SDS011;62197;51.632;13.700;2022-09-21T02:00:36;4.65;;;2.88;;
73859;SDS011;62197;51.632;13.700;2022-09-21T02:03:04;3.45;;;2.33;;
73859;SDS011;62197;51.632;13.700;2022-09-21T02:05:37;3.00;;;2.38;;
73859;SDS011;62197;51.632;13.700;2022-09-21T02:08:04;4.90;;;2.78;;
73859;SDS011;62197;51.632;13.700;2022-09-21T02:10:40;4.43;;;2.90;;
73859;SDS011;62197;51.632;13.700;2022-09-21T02:13:09;7.38;;;3.03;;
73859;SDS011;62197;51.632;13.700;2022-09-21T02:21:02;3.80;;;2.70;;
73859;SDS011;62197;51.632;13.700;2022-09-21T02:23:42;10.10;;;3.30;;
73859;SDS011;62197;51.632;13.700;2022-09-21T02:26:16;2.65;;;1.90;;
73859;SDS011;62197;51.632;13.700;2022-09-21T02:28:50;5.10;;;2.38;;
73859;SDS011;62197;51.632;13.700;2022-09-21T02:36:48;6.00;;;2.58;;
73859;SDS011;62197;51.632;13.700;2022-09-21T02:39:23;3.85;;;2.65;;
73859;SDS011;62197;51.632;13.700;2022-09-21T02:42:02;5.22;;;2.95;;
73859;SDS011;62197;51.632;13.700;2022-09-21T02:44:38;5.22;;;2.28;;
73859;SDS011;62197;51.632;13.700;2022-09-21T02:49:40;3.50;;;2.05;;
73859;SDS011;62197;51.632;13.700;2022-09-21T02:52:11;3.40;;;1.80;;
73859;SDS011;62197;51.632;13.700;2022-09-21T02:54:39;2.55;;;1.85;;
73859;SDS011;62197;51.632;13.700;2022-09-21T02:57:09;3.45;;;1.90;;
73859;SDS011;62197;51.632;13.700;2022-09-21T02:59:36;5.53;;;1.88;;
73859;SDS011;62197;51.632;13.700;2022-09-21T03:02:01;3.78;;;1.90;;
73859;SDS011;62197;51.632;13.700;2022-09-21T03:04:28;5.53;;;2.53;;
73859;SDS011;62197;51.632;13.700;2022-09-21T03:06:54;4.45;;;2.05;;
73859;SDS011;62197;51.632;13.700;2022-09-21T03:09:20;4.07;;;2.22;;
73859;SDS011;62197;51.632;13.700;2022-09-21T03:11:48;4.60;;;2.10;;
73859;SDS011;62197;51.632;13.700;2022-09-21T03:14:14;2.92;;;2.30;;
73859;SDS011;62197;51.632;13.700;2022-09-21T03:16:39;3.88;;;2.28;;
73859;SDS011;62197;51.632;13.700;2022-09-21T03:19:05;4.13;;;2.20;;
73859;SDS011;62197;51.632;13.700;2022-09-21T03:21:30;4.90;;;2.55;;
73859;SDS011;62197;51.632;13.700;2022-09-21T03:23:56;2.78;;;2.20;;
73859;SDS011;62197;51.632;13.700;2022-09-21T03:26:21;3.30;;;2.08;;
73859;SDS011;62197;51.632;13.700;2022-09-21T03:28:49;3.00;;;1.98;;
73859;SDS011;62197;51.632;13.700;2022-09-21T03:31:15;3.70;;;2.15;;
73859;SDS011;62197;51.632;13.700;2022-09-21T03:33:41;3.10;;;1.85;;
73859;SDS011;62197;51.632;13.700;2022-09-21T03:36:06;3.13;;;2.15;;
73859;SDS011;62197;51.632;13.700;2022-09-21T03:38:32;2.55;;;2.00;;
73859;SDS011;62197;51.632;13.700;2022-09-21T03:40:57;4.05;;;2.50;;
73859;SDS011;62197;51.632;13.700;2022-09-21T03:43:23;5.43;;;2.40;;
73859;SDS011;62197;51.632;13.700;2022-09-21T03:45:49;4.30;;;2.47;;
73859;SDS011;62197;51.632;13.700;2022-09-21T03:48:14;5.82;;;3.30;;
73859;SDS011;62197;51.632;13.700;2022-09-21T03:50:40;4.53;;;2.67;;
73859;SDS011;62197;51.632;13.700;2022-09-21T03:53:06;4.93;;;3.03;;
73859;SDS011;62197;51.632;13.700;2022-09-21T03:55:32;6.50;;;4.20;;
73859;SDS011;62197;51.632;13.700;2022-09-21T03:57:57;8.50;;;6.05;;
73859;SDS011;62197;51.632;13.700;2022-09-21T04:00:24;4.75;;;3.30;;
73859;SDS011;62197;51.632;13.700;2022-09-21T04:02:49;9.02;;;6.30;;
73859;SDS011;62197;51.632;13.700;2022-09-21T04:05:15;8.65;;;6.00;;
73859;SDS011;62197;51.632;13.700;2022-09-21T04:07:42;6.57;;;4.47;;
73859;SDS011;62197;51.632;13.700;2022-09-21T04:10:10;10.00;;;6.22;;
73859;SDS011;62197;51.632;13.700;2022-09-21T04:12:38;7.63;;;5.38;;
73859;SDS011;62197;51.632;13.700;2022-09-21T04:15:07;5.13;;;3.53;;
73859;SDS011;62197;51.632;13.700;2022-09-21T04:17:34;4.43;;;3.67;;
73859;SDS011;62197;51.632;13.700;2022-09-21T04:19:59;4.82;;;3.85;;
73859;SDS011;62197;51.632;13.700;2022-09-21T04:22:25;6.85;;;4.35;;
73859;SDS011;62197;51.632;13.700;2022-09-21T04:24:50;9.13;;;3.80;;
73859;SDS011;62197;51.632;13.700;2022-09-21T04:27:16;5.03;;;3.50;;
73859;SDS011;62197;51.632;13.700;2022-09-21T04:29:42;5.40;;;3.35;;
73859;SDS011;62197;51.632;13.700;2022-09-21T04:34:34;4.45;;;2.78;;
73859;SDS011;62197;51.632;13.700;2022-09-21T04:37:00;4.38;;;2.83;;
73859;SDS011;62197;51.632;13.700;2022-09-21T04:39:25;4.30;;;2.50;;
73859;SDS011;62197;51.632;13.700;2022-09-21T04:41:51;4.05;;;2.95;;
73859;SDS011;62197;51.632;13.700;2022-09-21T04:44:16;6.13;;;3.08;;
73859;SDS011;62197;51.632;13.700;2022-09-21T04:46:44;5.63;;;3.20;;
73859;SDS011;62197;51.632;13.700;2022-09-21T04:49:10;3.65;;;2.30;;
73859;SDS011;62197;51.632;13.700;2022-09-21T04:51:36;4.20;;;2.78;;
73859;SDS011;62197;51.632;13.700;2022-09-21T04:54:01;3.85;;;2.60;;
73859;SDS011;62197;51.632;13.700;2022-09-21T04:56:27;5.90;;;3.17;;
73859;SDS011;62197;51.632;13.700;2022-09-21T04:58:52;8.50;;;4.20;;
73859;SDS011;62197;51.632;13.700;2022-09-21T05:01:17;4.22;;;3.40;;
73859;SDS011;62197;51.632;13.700;2022-09-21T05:03:43;6.07;;;4.30;;
73859;SDS011;62197;51.632;13.700;2022-09-21T05:06:08;6.10;;;4.05;;
73859;SDS011;62197;51.632;13.700;2022-09-21T05:08:37;6.65;;;3.67;;
73859;SDS011;62197;51.632;13.700;2022-09-21T05:11:21;4.80;;;3.90;;
73859;SDS011;62197;51.632;13.700;2022-09-21T05:13:46;6.90;;;4.82;;
73859;SDS011;62197;51.632;13.700;2022-09-21T05:16:12;6.47;;;4.18;;
73859;SDS011;62197;51.632;13.700;2022-09-21T05:21:03;7.93;;;4.20;;
73859;SDS011;62197;51.632;13.700;2022-09-21T05:23:30;4.88;;;3.15;;
73859;SDS011;62197;51.632;13.700;2022-09-21T05:25:56;6.15;;;3.90;;
73859;SDS011;62197;51.632;13.700;2022-09-21T05:28:23;4.07;;;2.75;;
73859;SDS011;62197;51.632;13.700;2022-09-21T05:33:52;9.88;;;5.28;;
73859;SDS011;62197;51.632;13.700;2022-09-21T05:36:26;2.25;;;1.40;;
73859;SDS011;62197;51.632;13.700;2022-09-21T05:39:06;2.58;;;1.92;;
73859;SDS011;62197;51.632;13.700;2022-09-21T05:41:32;2.88;;;1.80;;
73859;SDS011;62197;51.632;13.700;2022-09-21T05:43:57;2.78;;;1.55;;
73859;SDS011;62197;51.632;13.700;2022-09-21T05:46:41;2.92;;;1.63;;
73859;SDS011;62197;51.632;13.700;2022-09-21T05:49:13;3.08;;;1.45;;
73859;SDS011;62197;51.632;13.700;2022-09-21T05:51:46;2.05;;;1.02;;
73859;SDS011;62197;51.632;13.700;2022-09-21T05:55:02;2.13;;;1.10;;
73859;SDS011;62197;51.632;13.700;2022-09-21T05:57:17;1.73;;;0.82;;
73859;SDS011;62197;51.632;13.700;2022-09-21T06:02:49;2.40;;;1.77;;
73859;SDS011;62197;51.632;13.700;2022-09-21T06:05:25;3.33;;;2.10;;
73859;SDS011;62197;51.632;13.700;2022-09-21T06:07:50;4.40;;;2.72;;
73859;SDS011;62197;51.632;13.700;2022-09-21T06:10:16;3.20;;;2.25;;
73859;SDS011;62197;51.632;13.700;2022-09-21T06:12:41;5.05;;;3.10;;
73859;SDS011;62197;51.632;13.700;2022-09-21T06:15:09;6.38;;;3.33;;
73859;SDS011;62197;51.632;13.700;2022-09-21T06:17:36;4.03;;;2.47;;
73859;SDS011;62197;51.632;13.700;2022-09-21T06:20:01;4.25;;;2.30;;
73859;SDS011;62197;51.632;13.700;2022-09-21T06:22:27;4.18;;;2.30;;
73859;SDS011;62197;51.632;13.700;2022-09-21T06:24:52;4.85;;;2.10;;
73859;SDS011;62197;51.632;13.700;2022-09-21T06:27:18;2.83;;;1.75;;
73859;SDS011;62197;51.632;13.700;2022-09-21T06:29:43;6.88;;;1.73;;
73859;SDS011;62197;51.632;13.700;2022-09-21T06:32:08;3.50;;;2.22;;
73859;SDS011;62197;51.632;13.700;2022-09-21T06:34:34;3.25;;;1.77;;
73859;SDS011;62197;51.632;13.700;2022-09-21T06:36:59;3.50;;;2.15;;
73859;SDS011;62197;51.632;13.700;2022-09-21T06:39:24;3.92;;;2.20;;
73859;SDS011;62197;51.632;13.700;2022-09-21T06:41:50;2.85;;;1.52;;
73859;SDS011;62197;51.632;13.700;2022-09-21T06:46:41;3.00;;;1.83;;
73859;SDS011;62197;51.632;13.700;2022-09-21T06:49:06;3.53;;;1.70;;
73859;SDS011;62197;51.632;13.700;2022-09-21T06:51:32;2.60;;;1.60;;
73859;SDS011;62197;51.632;13.700;2022-09-21T06:53:57;2.95;;;1.70;;
73859;SDS011;62197;51.632;13.700;2022-09-21T06:56:23;4.03;;;1.77;;
73859;SDS011;62197;51.632;13.700;2022-09-21T06:58:50;2.88;;;1.90;;
73859;SDS011;62197;51.632;13.700;2022-09-21T07:01:16;4.45;;;2.05;;
73859;SDS011;62197;51.632;13.700;2022-09-21T07:03:43;9.30;;;2.65;;
73859;SDS011;62197;51.632;13.700;2022-09-21T07:08:39;3.17;;;2.38;;
73859;SDS011;62197;51.632;13.700;2022-09-21T07:11:05;3.05;;;2.22;;
73859;SDS011;62197;51.632;13.700;2022-09-21T07:13:30;4.30;;;2.50;;
73859;SDS011;62197;51.632;13.700;2022-09-21T07:18:21;2.70;;;1.80;;
73859;SDS011;62197;51.632;13.700;2022-09-21T07:20:47;3.72;;;2.42;;
73859;SDS011;62197;51.632;13.700;2022-09-21T07:23:14;4.82;;;2.30;;
73859;SDS011;62197;51.632;13.700;2022-09-21T07:25:41;3.55;;;1.92;;
73859;SDS011;62197;51.632;13.700;2022-09-21T07:28:08;3.58;;;2.05;;
73859;SDS011;62197;51.632;13.700;2022-09-21T07:30:34;4.35;;;2.13;;
73859;SDS011;62197;51.632;13.700;2022-09-21T07:33:01;6.47;;;2.20;;
73859;SDS011;62197;51.632;13.700;2022-09-21T07:35:26;3.60;;;2.10;;
73859;SDS011;62197;51.632;13.700;2022-09-21T07:37:51;3.28;;;2.00;;
73859;SDS011;62197;51.632;13.700;2022-09-21T07:40:17;5.72;;;1.83;;
73859;SDS011;62197;51.632;13.700;2022-09-21T07:42:42;3.22;;;2.08;;
73859;SDS011;62197;51.632;13.700;2022-09-21T07:45:09;3.03;;;2.05;;
73859;SDS011;62197;51.632;13.700;2022-09-21T07:50:00;4.20;;;2.00;;
73859;SDS011;62197;51.632;13.700;2022-09-21T07:52:26;3.40;;;2.20;;
73859;SDS011;62197;51.632;13.700;2022-09-21T07:57:16;3.10;;;1.87;;
73859;SDS011;62197;51.632;13.700;2022-09-21T08:00:00;5.57;;;2.03;;
73859;SDS011;62197;51.632;13.700;2022-09-21T08:04:51;3.50;;;1.70;;
73859;SDS011;62197;51.632;13.700;2022-09-21T08:07:17;5.45;;;1.98;;
73859;SDS011;62197;51.632;13.700;2022-09-21T08:12:09;4.60;;;1.40;;
73859;SDS011;62197;51.632;13.700;2022-09-21T08:14:37;3.63;;;1.48;;
73859;SDS011;62197;51.632;13.700;2022-09-21T08:19:28;4.50;;;1.60;;
73859;SDS011;62197;51.632;13.700;2022-09-21T08:24:19;4.33;;;1.60;;
73859;SDS011;62197;51.632;13.700;2022-09-21T08:29:10;4.95;;;1.52;;
73859;SDS011;62197;51.632;13.700;2022-09-21T08:31:38;3.33;;;1.45;;
73859;SDS011;62197;51.632;13.700;2022-09-21T08:36:29;3.80;;;1.37;;
73859;SDS011;62197;51.632;13.700;2022-09-21T08:41:25;4.80;;;1.70;;
73859;SDS011;62197;51.632;13.700;2022-09-21T08:44:04;6.22;;;1.13;;
73859;SDS011;62197;51.632;13.700;2022-09-21T08:46:35;2.63;;;0.88;;
73859;SDS011;62197;51.632;13.700;2022-09-21T08:49:07;4.18;;;1.05;;
73859;SDS011;62197;51.632;13.700;2022-09-21T08:51:40;3.97;;;1.13;;
73859;SDS011;62197;51.632;13.700;2022-09-21T08:54:15;2.40;;;0.98;;
73859;SDS011;62197;51.632;13.700;2022-09-21T08:56:45;2.40;;;1.00;;
73859;SDS011;62197;51.632;13.700;2022-09-21T08:59:11;2.10;;;0.70;;
73859;SDS011;62197;51.632;13.700;2022-09-21T09:01:44;4.18;;;0.90;;
73859;SDS011;62197;51.632;13.700;2022-09-21T09:04:29;2.60;;;0.90;;
73859;SDS011;62197;51.632;13.700;2022-09-21T09:09:51;3.92;;;1.35;;
73859;SDS011;62197;51.632;13.700;2022-09-21T09:17:49;3.10;;;0.95;;
73859;SDS011;62197;51.632;13.700;2022-09-21T09:20:33;2.40;;;1.00;;
73859;SDS011;62197;51.632;13.700;2022-09-21T09:25:38;2.40;;;0.95;;
73859;SDS011;62197;51.632;13.700;2022-09-21T09:30:46;3.83;;;0.82;;
73859;SDS011;62197;51.632;13.700;2022-09-21T09:33:22;3.10;;;1.10;;
73859;SDS011;62197;51.632;13.700;2022-09-21T09:35:54;2.55;;;0.80;;
73859;SDS011;62197;51.632;13.700;2022-09-21T09:38:27;3.55;;;1.00;;
73859;SDS011;62197;51.632;13.700;2022-09-21T09:46:13;5.22;;;1.10;;
73859;SDS011;62197;51.632;13.700;2022-09-21T09:49:32;1.30;;;0.77;;
73859;SDS011;62197;51.632;13.700;2022-09-21T09:51:52;5.60;;;1.00;;
73859;SDS011;62197;51.632;13.700;2022-09-21T09:54:25;2.45;;;1.00;;
73859;SDS011;62197;51.632;13.700;2022-09-21T09:56:51;2.80;;;1.00;;
73859;SDS011;62197;51.632;13.700;2022-09-21T10:02:27;5.18;;;1.27;;
73859;SDS011;62197;51.632;13.700;2022-09-21T10:04:59;4.25;;;0.77;;
73859;SDS011;62197;51.632;13.700;2022-09-21T10:07:34;1.58;;;0.63;;
73859;SDS011;62197;51.632;13.700;2022-09-21T10:10:05;4.65;;;0.80;;
73859;SDS011;62197;51.632;13.700;2022-09-21T10:15:49;3.03;;;1.17;;
73859;SDS011;62197;51.632;13.700;2022-09-21T10:18:21;1.42;;;0.40;;
73859;SDS011;62197;51.632;13.700;2022-09-21T10:20:51;1.40;;;0.45;;
73859;SDS011;62197;51.632;13.700;2022-09-21T10:23:23;2.65;;;1.40;;
73859;SDS011;62197;51.632;13.700;2022-09-21T10:25:53;1.38;;;0.70;;
73859;SDS011;62197;51.632;13.700;2022-09-21T10:28:53;1.67;;;0.60;;
73859;SDS011;62197;51.632;13.700;2022-09-21T10:31:22;1.27;;;0.75;;
73859;SDS011;62197;51.632;13.700;2022-09-21T10:33:51;0.52;;;0.40;;
73859;SDS011;62197;51.632;13.700;2022-09-21T10:36:31;1.65;;;0.60;;
73859;SDS011;62197;51.632;13.700;2022-09-21T10:42:01;1.38;;;0.60;;
73859;SDS011;62197;51.632;13.700;2022-09-21T10:44:28;1.75;;;0.45;;
73859;SDS011;62197;51.632;13.700;2022-09-21T10:47:01;2.70;;;0.90;;
73859;SDS011;62197;51.632;13.700;2022-09-21T10:49:42;2.10;;;0.80;;
73859;SDS011;62197;51.632;13.700;2022-09-21T10:52:10;1.70;;;0.55;;
73859;SDS011;62197;51.632;13.700;2022-09-21T10:54:36;1.13;;;0.63;;
73859;SDS011;62197;51.632;13.700;2022-09-21T10:57:09;2.17;;;0.80;;
73859;SDS011;62197;51.632;13.700;2022-09-21T10:59:41;2.08;;;0.52;;
73859;SDS011;62197;51.632;13.700;2022-09-21T11:07:51;1.13;;;0.77;;
73859;SDS011;62197;51.632;13.700;2022-09-21T11:10:33;1.27;;;0.93;;
73859;SDS011;62197;51.632;13.700;2022-09-21T11:13:15;1.73;;;0.65;;
73859;SDS011;62197;51.632;13.700;2022-09-21T11:15:53;1.83;;;0.60;;
73859;SDS011;62197;51.632;13.700;2022-09-21T11:18:34;0.90;;;0.60;;
73859;SDS011;62197;51.632;13.700;2022-09-21T11:27:06;2.80;;;0.55;;
73859;SDS011;62197;51.632;13.700;2022-09-21T11:35:34;1.55;;;0.50;;
73859;SDS011;62197;51.632;13.700;2022-09-21T11:41:11;0.93;;;0.43;;
73859;SDS011;62197;51.632;13.700;2022-09-21T11:44:00;1.17;;;0.60;;
73859;SDS011;62197;51.632;13.700;2022-09-21T11:49:28;1.38;;;0.47;;
73859;SDS011;62197;51.632;13.700;2022-09-21T11:52:31;1.02;;;0.45;;
73859;SDS011;62197;51.632;13.700;2022-09-21T12:00:43;1.13;;;0.55;;
73859;SDS011;62197;51.632;13.700;2022-09-21T12:03:37;1.48;;;0.50;;
73859;SDS011;62197;51.632;13.700;2022-09-21T12:11:32;1.05;;;0.40;;
73859;SDS011;62197;51.632;13.700;2022-09-21T12:17:04;3.45;;;0.40;;
73859;SDS011;62197;51.632;13.700;2022-09-21T12:19:38;0.52;;;0.20;;
73859;SDS011;62197;51.632;13.700;2022-09-21T12:22:20;0.20;;;0.13;;
73859;SDS011;62197;51.632;13.700;2022-09-21T12:24:50;0.20;;;0.20;;
73859;SDS011;62197;51.632;13.700;2022-09-21T12:29:52;0.95;;;0.22;;
73859;SDS011;62197;51.632;13.700;2022-09-21T12:32:45;1.15;;;0.30;;
73859;SDS011;62197;51.632;13.700;2022-09-21T12:35:29;0.50;;;0.30;;
73859;SDS011;62197;51.632;13.700;2022-09-21T12:38:11;2.08;;;0.40;;
73859;SDS011;62197;51.632;13.700;2022-09-21T12:40:54;0.70;;;0.32;;
73859;SDS011;62197;51.632;13.700;2022-09-21T12:43:35;0.28;;;0.20;;
73859;SDS011;62197;51.632;13.700;2022-09-21T12:48:49;1.20;;;0.40;;
73859;SDS011;62197;51.632;13.700;2022-09-21T12:53:42;0.63;;;0.30;;
73859;SDS011;62197;51.632;13.700;2022-09-21T12:56:12;0.90;;;0.43;;
73859;SDS011;62197;51.632;13.700;2022-09-21T13:12:43;1.00;;;0.38;;
73859;SDS011;62197;51.632;13.700;2022-09-21T13:15:13;3.45;;;0.45;;
73859;SDS011;62197;51.632;13.700;2022-09-21T13:18:14;0.95;;;0.43;;
73859;SDS011;62197;51.632;13.700;2022-09-21T13:20:42;0.73;;;0.22;;
73859;SDS011;62197;51.632;13.700;2022-09-21T13:23:16;1.52;;;0.40;;
73859;SDS011;62197;51.632;13.700;2022-09-21T13:25:47;0.63;;;0.20;;
73859;SDS011;62197;51.632;13.700;2022-09-21T13:30:44;0.75;;;0.20;;
73859;SDS011;62197;51.632;13.700;2022-09-21T13:33:31;0.40;;;0.25;;
73859;SDS011;62197;51.632;13.700;2022-09-21T13:36:02;0.30;;;0.10;;
73859;SDS011;62197;51.632;13.700;2022-09-21T13:49:00;0.63;;;0.20;;
73859;SDS011;62197;51.632;13.700;2022-09-21T13:51:49;0.90;;;0.20;;
73859;SDS011;62197;51.632;13.700;2022-09-21T13:54:22;0.75;;;0.22;;
73859;SDS011;62197;51.632;13.700;2022-09-21T13:57:01;1.35;;;0.35;;
73859;SDS011;62197;51.632;13.700;2022-09-21T13:59:29;0.38;;;0.30;;
73859;SDS011;62197;51.632;13.700;2022-09-21T14:01:58;0.30;;;0.20;;
73859;SDS011;62197;51.632;13.700;2022-09-21T14:06:51;0.20;;;0.10;;
73859;SDS011;62197;51.632;13.700;2022-09-21T14:09:21;1.20;;;0.10;;
73859;SDS011;62197;51.632;13.700;2022-09-21T14:11:55;0.50;;;0.22;;
73859;SDS011;62197;51.632;13.700;2022-09-21T14:14:34;1.75;;;0.20;;
73859;SDS011;62197;51.632;13.700;2022-09-21T14:20:00;0.30;;;0.20;;
73859;SDS011;62197;51.632;13.700;2022-09-21T14:27:46;1.00;;;0.75;;
73859;SDS011;62197;51.632;13.700;2022-09-21T14:32:52;0.80;;;0.32;;
73859;SDS011;62197;51.632;13.700;2022-09-21T14:35:24;0.57;;;0.30;;
73859;SDS011;62197;51.632;13.700;2022-09-21T14:37:55;0.47;;;0.30;;
73859;SDS011;62197;51.632;13.700;2022-09-21T14:40:24;0.90;;;0.20;;
73859;SDS011;62197;51.632;13.700;2022-09-21T14:42:55;0.40;;;0.20;;
73859;SDS011;62197;51.632;13.700;2022-09-21T14:45:40;0.95;;;0.60;;
73859;SDS011;62197;51.632;13.700;2022-09-21T15:02:26;1.00;;;0.43;;
73859;SDS011;62197;51.632;13.700;2022-09-21T15:11:29;1.23;;;0.50;;
73859;SDS011;62197;51.632;13.700;2022-09-21T15:24:52;1.10;;;0.60;;
73859;SDS011;62197;51.632;13.700;2022-09-21T15:27:20;1.73;;;0.73;;
73859;SDS011;62197;51.632;13.700;2022-09-21T15:29:52;2.95;;;0.57;;
73859;SDS011;62197;51.632;13.700;2022-09-21T15:32:24;2.40;;;0.60;;
73859;SDS011;62197;51.632;13.700;2022-09-21T15:34:58;2.58;;;0.68;;
73859;SDS011;62197;51.632;13.700;2022-09-21T15:37:25;1.98;;;0.70;;
73859;SDS011;62197;51.632;13.700;2022-09-21T15:40:00;2.15;;;1.05;;
73859;SDS011;62197;51.632;13.700;2022-09-21T15:42:29;2.33;;;0.90;;
73859;SDS011;62197;51.632;13.700;2022-09-21T15:45:14;2.13;;;0.57;;
73859;SDS011;62197;51.632;13.700;2022-09-21T15:47:41;1.33;;;0.50;;
73859;SDS011;62197;51.632;13.700;2022-09-21T15:50:11;2.13;;;0.68;;
73859;SDS011;62197;51.632;13.700;2022-09-21T15:52:40;1.00;;;0.40;;
73859;SDS011;62197;51.632;13.700;2022-09-21T15:55:17;0.80;;;0.50;;
73859;SDS011;62197;51.632;13.700;2022-09-21T15:57:45;1.20;;;0.38;;
73859;SDS011;62197;51.632;13.700;2022-09-21T16:00:25;1.05;;;0.60;;
73859;SDS011;62197;51.632;13.700;2022-09-21T16:03:00;0.63;;;0.40;;
73859;SDS011;62197;51.632;13.700;2022-09-21T16:05:31;1.13;;;0.50;;
73859;SDS011;62197;51.632;13.700;2022-09-21T16:08:41;1.17;;;0.60;;
73859;SDS011;62197;51.632;13.700;2022-09-21T16:11:09;0.88;;;0.47;;
73859;SDS011;62197;51.632;13.700;2022-09-21T16:13:41;3.75;;;0.55;;
73859;SDS011;62197;51.632;13.700;2022-09-21T16:16:25;2.17;;;1.23;;
73859;SDS011;62197;51.632;13.700;2022-09-21T16:18:51;1.40;;;0.52;;
73859;SDS011;62197;51.632;13.700;2022-09-21T16:23:47;1.92;;;1.17;;
73859;SDS011;62197;51.632;13.700;2022-09-21T16:26:19;5.13;;;1.48;;
73859;SDS011;62197;51.632;13.700;2022-09-21T16:28:47;3.30;;;1.45;;
73859;SDS011;62197;51.632;13.700;2022-09-21T16:33:58;2.22;;;1.05;;
73859;SDS011;62197;51.632;13.700;2022-09-21T16:38:56;2.85;;;1.83;;
73859;SDS011;62197;51.632;13.700;2022-09-21T16:41:22;5.03;;;2.22;;
73859;SDS011;62197;51.632;13.700;2022-09-21T16:43:56;4.25;;;2.55;;
73859;SDS011;62197;51.632;13.700;2022-09-21T16:46:22;7.40;;;3.90;;
73859;SDS011;62197;51.632;13.700;2022-09-21T16:48:50;5.75;;;4.32;;
73859;SDS011;62197;51.632;13.700;2022-09-21T16:51:16;6.25;;;3.88;;
73859;SDS011;62197;51.632;13.700;2022-09-21T16:53:46;6.13;;;3.70;;
73859;SDS011;62197;51.632;13.700;2022-09-21T16:56:11;3.35;;;2.08;;
73859;SDS011;62197;51.632;13.700;2022-09-21T16:58:38;4.53;;;2.35;;
73859;SDS011;62197;51.632;13.700;2022-09-21T17:01:07;4.57;;;1.80;;
73859;SDS011;62197;51.632;13.700;2022-09-21T17:03:36;4.60;;;2.33;;
73859;SDS011;62197;51.632;13.700;2022-09-21T17:06:02;5.53;;;2.67;;
73859;SDS011;62197;51.632;13.700;2022-09-21T17:08:29;5.63;;;2.75;;
73859;SDS011;62197;51.632;13.700;2022-09-21T17:10:56;6.10;;;3.13;;
73859;SDS011;62197;51.632;13.700;2022-09-21T17:13:21;7.10;;;4.05;;
73859;SDS011;62197;51.632;13.700;2022-09-21T17:15:47;9.02;;;4.97;;
73859;SDS011;62197;51.632;13.700;2022-09-21T17:18:13;9.95;;;4.60;;
73859;SDS011;62197;51.632;13.700;2022-09-21T17:23:05;13.20;;;6.20;;
73859;SDS011;62197;51.632;13.700;2022-09-21T17:25:31;20.17;;;9.05;;
73859;SDS011;62197;51.632;13.700;2022-09-21T17:27:59;19.13;;;9.35;;
73859;SDS011;62197;51.632;13.700;2022-09-21T17:30:26;19.25;;;9.20;;
73859;SDS011;62197;51.632;13.700;2022-09-21T17:32:52;15.88;;;8.20;;
73859;SDS011;62197;51.632;13.700;2022-09-21T17:35:21;13.77;;;6.85;;
73859;SDS011;62197;51.632;13.700;2022-09-21T17:37:50;17.75;;;7.43;;
73859;SDS011;62197;51.632;13.700;2022-09-21T17:42:41;10.73;;;5.28;;
73859;SDS011;62197;51.632;13.700;2022-09-21T17:48:00;9.63;;;5.38;;
73859;SDS011;62197;51.632;13.700;2022-09-21T17:50:26;8.95;;;5.15;;
73859;SDS011;62197;51.632;13.700;2022-09-21T17:52:52;10.95;;;6.43;;
73859;SDS011;62197;51.632;13.700;2022-09-21T17:55:38;10.52;;;6.75;;
73859;SDS011;62197;51.632;13.700;2022-09-21T17:58:29;9.52;;;5.45;;
73859;SDS011;62197;51.632;13.700;2022-09-21T18:03:57;8.27;;;4.20;;
73859;SDS011;62197;51.632;13.700;2022-09-21T18:08:49;6.53;;;3.80;;
73859;SDS011;62197;51.632;13.700;2022-09-21T18:13:49;7.43;;;3.47;;
73859;SDS011;62197;51.632;13.700;2022-09-21T18:16:30;5.78;;;2.60;;
73859;SDS011;62197;51.632;13.700;2022-09-21T18:19:15;3.65;;;2.40;;
73859;SDS011;62197;51.632;13.700;2022-09-21T18:21:50;5.38;;;3.40;;
73859;SDS011;62197;51.632;13.700;2022-09-21T18:24:29;6.53;;;3.67;;
73859;SDS011;62197;51.632;13.700;2022-09-21T18:26:57;7.03;;;4.32;;
73859;SDS011;62197;51.632;13.700;2022-09-21T18:29:31;4.68;;;2.90;;
73859;SDS011;62197;51.632;13.700;2022-09-21T18:32:05;7.00;;;3.00;;
73859;SDS011;62197;51.632;13.700;2022-09-21T18:37:32;5.53;;;2.53;;
73859;SDS011;62197;51.632;13.700;2022-09-21T18:46:00;3.45;;;2.40;;
73859;SDS011;62197;51.632;13.700;2022-09-21T18:48:41;5.35;;;2.70;;
73859;SDS011;62197;51.632;13.700;2022-09-21T18:54:11;4.03;;;2.50;;
73859;SDS011;62197;51.632;13.700;2022-09-21T18:56:44;4.32;;;2.60;;
73859;SDS011;62197;51.632;13.700;2022-09-21T19:01:36;6.43;;;3.53;;
73859;SDS011;62197;51.632;13.700;2022-09-21T19:06:33;5.00;;;2.47;;
73859;SDS011;62197;51.632;13.700;2022-09-21T19:14:46;2.95;;;1.73;;
73859;SDS011;62197;51.632;13.700;2022-09-21T19:17:36;2.92;;;1.67;;
73859;SDS011;62197;51.632;13.700;2022-09-21T19:20:28;2.25;;;1.42;;